Time;durP1;ratioP1;P1;durP2;ratioP2;P2;SDS_P1;SDS_P2;PMS_P1;PMS_P2;Temp;Humidity;BMP_temperature;BMP_pressure;BME280_temperature;BME280_humidity;BME280_pressure;Samples;Min_cycle;Max_cycle;Signal;HPM_P1;HPM_P2
2021/03/03 00:01:27;;;;;;;3.20;2.35;;;24.60;13.00;;;;;;4351872;32;20070;-58
2021/03/03 00:03:53;;;;;;;3.55;2.50;;;24.60;13.20;;;;;;4388821;32;20141;-58
2021/03/03 00:06:19;;;;;;;3.40;2.45;;;24.50;13.00;;;;;;4389040;32;20455;-59
2021/03/03 00:08:45;;;;;;;3.15;2.58;;;24.50;13.10;;;;;;4389160;32;20504;-59
2021/03/03 00:11:11;;;;;;;4.15;2.62;;;24.50;13.00;;;;;;4377612;32;20080;-58
2021/03/03 00:13:38;;;;;;;4.03;2.60;;;24.60;13.00;;;;;;4379768;32;20065;-59
2021/03/03 00:16:04;;;;;;;4.68;2.70;;;24.60;13.00;;;;;;4379326;32;20078;-59
2021/03/03 00:18:31;;;;;;;4.50;2.53;;;24.50;13.00;;;;;;4354424;32;20077;-58
2021/03/03 00:20:57;;;;;;;3.62;2.50;;;24.70;13.00;;;;;;4392001;32;20454;-59
2021/03/03 00:23:23;;;;;;;2.70;2.20;;;24.60;13.00;;;;;;4381850;32;20074;-59
2021/03/03 00:25:50;;;;;;;3.42;2.50;;;24.60;13.00;;;;;;4394176;32;20049;-58
2021/03/03 00:28:16;;;;;;;4.30;2.60;;;24.50;13.00;;;;;;4366497;32;20069;-58
2021/03/03 00:30:42;;;;;;;4.12;2.33;;;24.60;13.00;;;;;;4366603;32;20076;-59
2021/03/03 00:33:09;;;;;;;3.42;2.50;;;24.60;13.00;;;;;;4396692;32;20502;-58
2021/03/03 00:35:36;;;;;;;4.55;2.83;;;24.60;13.00;;;;;;4367676;32;20116;-59
2021/03/03 00:38:02;;;;;;;5.53;3.03;;;24.60;12.90;;;;;;4381440;32;20481;-59
2021/03/03 00:40:28;;;;;;;4.82;2.83;;;24.60;12.90;;;;;;4379167;32;20601;-59
2021/03/03 00:42:54;;;;;;;4.90;3.00;;;24.60;12.90;;;;;;4392111;32;20088;-58
2021/03/03 00:45:21;;;;;;;4.03;2.12;;;24.60;13.00;;;;;;4391184;32;20151;-58
2021/03/03 00:47:47;;;;;;;4.62;2.80;;;24.60;13.00;;;;;;4390731;32;20146;-60
2021/03/03 00:50:13;;;;;;;3.25;2.55;;;24.60;12.90;;;;;;4391670;32;20073;-58
2021/03/03 00:52:40;;;;;;;3.75;2.45;;;24.60;13.00;;;;;;4366376;32;20075;-59
2021/03/03 00:55:07;;;;;;;3.15;2.30;;;24.50;13.00;;;;;;4399308;32;20081;-60
2021/03/03 00:57:33;;;;;;;2.90;2.33;;;24.50;13.00;;;;;;4366796;32;20437;-59
2021/03/03 00:59:59;;;;;;;4.78;2.53;;;24.50;13.00;;;;;;4391486;32;20072;-58
2021/03/03 01:02:25;;;;;;;4.15;2.47;;;24.60;12.90;;;;;;4380809;32;20066;-59
2021/03/03 01:04:51;;;;;;;4.55;2.70;;;24.60;12.90;;;;;;4406442;32;20059;-59
2021/03/03 01:07:18;;;;;;;5.55;3.33;;;24.50;13.00;;;;;;4406132;32;20081;-58
2021/03/03 01:09:44;;;;;;;4.72;2.83;;;24.50;12.90;;;;;;4394087;32;20144;-59
2021/03/03 01:12:10;;;;;;;3.45;2.33;;;24.50;12.90;;;;;;4393947;32;20157;-58
2021/03/03 01:14:36;;;;;;;3.58;2.35;;;24.50;13.00;;;;;;4356576;32;20658;-59
2021/03/03 01:17:03;;;;;;;5.15;2.67;;;24.50;12.90;;;;;;4392839;32;20206;-59
2021/03/03 01:19:29;;;;;;;3.22;2.40;;;24.50;13.00;;;;;;4406700;32;20165;-58
2021/03/03 01:21:56;;;;;;;4.32;2.12;;;24.40;12.90;;;;;;4374536;32;20070;-58
2021/03/03 01:24:22;;;;;;;3.70;2.28;;;24.50;12.90;;;;;;4366025;32;20160;-59
2021/03/03 01:26:49;;;;;;;3.65;2.22;;;24.60;12.90;;;;;;4365767;32;20061;-59
2021/03/03 01:29:15;;;;;;;3.37;2.30;;;24.50;12.90;;;;;;4378431;32;20166;-59
2021/03/03 01:31:41;;;;;;;5.15;2.92;;;24.50;12.90;;;;;;4378213;32;20055;-59
2021/03/03 01:34:07;;;;;;;5.20;2.65;;;24.60;12.80;;;;;;4390337;32;20081;-59
2021/03/03 01:36:33;;;;;;;7.28;2.85;;;24.50;12.80;;;;;;4378495;32;20166;-58
2021/03/03 01:38:59;;;;;;;3.78;2.50;;;24.60;12.80;;;;;;4366096;32;20085;-59
2021/03/03 01:41:25;;;;;;;3.83;2.30;;;24.60;12.80;;;;;;4378690;32;20054;-58
2021/03/03 01:43:52;;;;;;;2.45;2.20;;;24.50;12.90;;;;;;4378368;32;20084;-59
2021/03/03 01:46:18;;;;;;;3.08;2.30;;;24.40;12.90;;;;;;4390597;32;20150;-58
2021/03/03 01:48:44;;;;;;;2.28;1.85;;;24.40;12.90;;;;;;4386825;32;20076;-58
2021/03/03 01:51:10;;;;;;;3.80;2.47;;;24.40;12.90;;;;;;4378171;32;20081;-58
2021/03/03 01:53:36;;;;;;;3.92;2.55;;;24.60;12.90;;;;;;4390538;32;20070;-58
2021/03/03 01:56:03;;;;;;;3.28;2.47;;;24.50;12.80;;;;;;4380276;32;20085;-59
2021/03/03 01:58:29;;;;;;;5.03;2.70;;;24.50;12.80;;;;;;4393432;32;20089;-58
2021/03/03 02:00:55;;;;;;;6.05;3.25;;;24.40;12.90;;;;;;4407075;32;20092;-58
2021/03/03 02:03:21;;;;;;;3.80;2.28;;;24.40;12.90;;;;;;4405100;32;20149;-58
2021/03/03 02:05:50;;;;;;;3.33;2.17;;;24.50;12.90;;;;;;4405530;32;20067;-58
2021/03/03 02:08:37;;;;;;;2.95;2.30;;;24.50;12.80;;;;;;4368576;32;20161;-58
2021/03/03 02:11:25;;;;;;;3.40;2.08;;;24.50;12.80;;;;;;4392889;32;20066;-59
2021/03/03 02:13:58;;;;;;;3.83;2.10;;;24.50;12.80;;;;;;4382119;32;20053;-59
2021/03/03 02:16:24;;;;;;;3.75;2.37;;;24.60;12.80;;;;;;4381008;32;20065;-59
2021/03/03 02:18:50;;;;;;;3.30;2.30;;;24.50;12.80;;;;;;4367788;32;20078;-59
2021/03/03 02:21:34;;;;;;;5.30;2.90;;;24.50;12.80;;;;;;4365431;32;20080;-59
2021/03/03 02:24:24;;;;;;;4.62;2.83;;;24.50;12.80;;;;;;4367988;32;20510;-58
2021/03/03 02:26:54;;;;;;;4.53;2.70;;;24.40;12.80;;;;;;4399733;32;20158;-59
2021/03/03 02:29:24;;;;;;;4.40;2.70;;;24.50;12.90;;;;;;4380320;32;20124;-59
2021/03/03 02:31:51;;;;;;;4.18;2.50;;;24.50;12.80;;;;;;4380673;32;20058;-61
2021/03/03 02:34:19;;;;;;;3.97;2.60;;;24.50;12.90;;;;;;4352264;32;20115;-59
2021/03/03 02:36:47;;;;;;;4.20;2.67;;;24.60;12.70;;;;;;4377986;32;20089;-59
2021/03/03 02:39:13;;;;;;;3.47;2.45;;;24.40;12.80;;;;;;4390061;32;20077;-59
2021/03/03 02:41:41;;;;;;;4.75;2.90;;;24.50;12.80;;;;;;4377648;32;20100;-59
2021/03/03 02:44:07;;;;;;;4.28;2.53;;;24.40;12.80;;;;;;4364987;32;20076;-59
2021/03/03 02:46:34;;;;;;;5.03;2.83;;;24.50;12.80;;;;;;4389773;32;20085;-58
2021/03/03 02:49:01;;;;;;;4.68;2.90;;;24.40;12.80;;;;;;4376741;32;20112;-58
2021/03/03 02:51:28;;;;;;;4.68;2.60;;;24.50;12.80;;;;;;4365281;32;20159;-59
2021/03/03 02:53:54;;;;;;;3.70;2.95;;;24.50;12.70;;;;;;4365154;32;20081;-59
2021/03/03 02:56:22;;;;;;;5.25;2.58;;;24.60;12.60;;;;;;4377493;32;20089;-58
2021/03/03 02:58:50;;;;;;;4.87;2.80;;;24.50;12.70;;;;;;4365498;32;20070;-59
2021/03/03 03:01:17;;;;;;;4.37;2.35;;;24.50;12.70;;;;;;4377401;32;20516;-59
2021/03/03 03:04:00;;;;;;;3.53;2.20;;;24.50;12.70;;;;;;4376812;32;20104;-59
2021/03/03 03:06:36;;;;;;;4.28;2.60;;;24.50;12.60;;;;;;4355001;32;20092;-58
2021/03/03 03:09:14;;;;;;;3.78;2.70;;;24.50;12.70;;;;;;4353545;32;20135;-59
2021/03/03 03:11:58;;;;;;;3.97;2.58;;;24.50;12.70;;;;;;4366552;32;20093;-60
2021/03/03 03:14:27;;;;;;;3.78;2.50;;;24.50;12.70;;;;;;4391406;32;20080;-58
2021/03/03 03:16:55;;;;;;;5.15;2.40;;;24.50;12.70;;;;;;4377329;32;20161;-58
2021/03/03 03:19:47;;;;;;;3.62;2.67;;;24.50;12.70;;;;;;4365367;32;20585;-58
2021/03/03 03:22:15;;;;;;;4.22;2.40;;;24.50;12.70;;;;;;4370706;32;20072;-59
2021/03/03 03:24:42;;;;;;;5.75;2.92;;;24.50;12.70;;;;;;4381367;32;20072;-58
2021/03/03 03:27:09;;;;;;;4.95;2.85;;;24.50;12.70;;;;;;4370322;32;20069;-59
2021/03/03 03:29:35;;;;;;;4.47;2.30;;;24.60;11.90;;;;;;4379071;32;20484;-59
2021/03/03 03:32:01;;;;;;;4.15;2.80;;;24.60;12.50;;;;;;4377902;32;20540;-58
2021/03/03 03:34:27;;;;;;;7.47;2.90;;;24.50;12.60;;;;;;4379529;32;20507;-58
2021/03/03 03:36:54;;;;;;;2.97;2.40;;;24.60;12.60;;;;;;4355167;32;20178;-59
2021/03/03 03:39:20;;;;;;;3.95;2.50;;;24.50;12.60;;;;;;4380040;32;20076;-59
2021/03/03 03:41:47;;;;;;;3.03;2.30;;;24.50;12.50;;;;;;4369191;32;20082;-58
2021/03/03 03:44:13;;;;;;;4.53;2.75;;;24.60;12.50;;;;;;4377717;32;20082;-60
2021/03/03 03:46:42;;;;;;;5.28;2.87;;;24.50;12.50;;;;;;4378142;32;20177;-59
2021/03/03 03:49:10;;;;;;;4.10;2.78;;;24.50;12.60;;;;;;4391969;32;20066;-60
2021/03/03 03:51:40;;;;;;;4.90;3.00;;;24.50;12.60;;;;;;4355157;32;20149;-59
2021/03/03 03:54:07;;;;;;;4.00;2.72;;;24.50;12.60;;;;;;4393424;32;20150;-59
2021/03/03 03:56:34;;;;;;;5.72;2.80;;;24.50;12.60;;;;;;4384085;32;20073;-59
2021/03/03 03:59:00;;;;;;;5.97;2.67;;;24.60;12.60;;;;;;4367806;32;20150;-57
2021/03/03 04:01:27;;;;;;;6.60;2.80;;;24.50;12.50;;;;;;4379725;32;20456;-58
2021/03/03 04:03:53;;;;;;;3.62;2.65;;;24.50;12.50;;;;;;4378802;32;20077;-58
2021/03/03 04:06:19;;;;;;;5.53;2.50;;;24.60;12.60;;;;;;4408817;32;20066;-58
2021/03/03 04:08:45;;;;;;;5.18;2.92;;;24.50;12.50;;;;;;4406949;32;20173;-58
2021/03/03 04:11:12;;;;;;;6.45;2.83;;;24.50;12.50;;;;;;4407451;32;20060;-59
2021/03/03 04:13:38;;;;;;;4.22;2.70;;;24.60;12.50;;;;;;4408522;32;20508;-59
2021/03/03 04:16:04;;;;;;;5.18;3.20;;;24.50;12.40;;;;;;4394551;32;20085;-60
2021/03/03 04:18:31;;;;;;;4.57;2.92;;;24.60;12.50;;;;;;4358960;32;20085;-59
2021/03/03 04:20:57;;;;;;;4.57;3.08;;;24.60;12.50;;;;;;4379353;32;20058;-58
2021/03/03 04:23:24;;;;;;;4.70;2.85;;;24.60;12.50;;;;;;4355195;32;20077;-58
2021/03/03 04:25:50;;;;;;;5.45;2.97;;;24.60;12.50;;;;;;4366726;32;20072;-59
2021/03/03 04:28:17;;;;;;;5.37;2.95;;;24.60;12.50;;;;;;4404059;32;20073;-59
2021/03/03 04:30:43;;;;;;;4.62;3.30;;;24.60;12.50;;;;;;4407020;32;20443;-59
2021/03/03 04:33:09;;;;;;;4.62;2.90;;;24.60;12.50;;;;;;4400052;32;20089;-59
2021/03/03 04:35:36;;;;;;;3.37;2.58;;;24.60;12.50;;;;;;4379736;32;20053;-58
2021/03/03 04:38:02;;;;;;;4.22;3.05;;;24.50;12.40;;;;;;4378993;32;20066;-59
2021/03/03 04:40:29;;;;;;;5.65;3.12;;;24.50;12.50;;;;;;4366780;32;20077;-58
2021/03/03 04:42:55;;;;;;;4.97;3.20;;;24.60;12.50;;;;;;4379286;32;20054;-58
2021/03/03 04:45:21;;;;;;;6.32;3.90;;;24.50;12.50;;;;;;4392990;32;20082;-59
2021/03/03 04:47:47;;;;;;;7.07;4.18;;;24.50;12.40;;;;;;4366067;32;20088;-59
2021/03/03 04:50:13;;;;;;;4.85;3.30;;;24.50;12.40;;;;;;4379034;32;20166;-59
2021/03/03 04:52:39;;;;;;;6.18;3.22;;;24.60;12.40;;;;;;4379858;32;20074;-60
2021/03/03 04:55:06;;;;;;;5.43;3.40;;;24.60;12.40;;;;;;4393378;32;20616;-60
2021/03/03 04:57:33;;;;;;;5.55;3.35;;;24.50;12.40;;;;;;4382068;32;20082;-60
2021/03/03 05:00:00;;;;;;;4.55;2.92;;;24.50;12.50;;;;;;4406641;32;20061;-59
2021/03/03 05:02:26;;;;;;;6.20;3.20;;;24.50;12.40;;;;;;4390947;32;20061;-59
2021/03/03 05:04:52;;;;;;;5.62;2.85;;;24.60;12.40;;;;;;4378843;32;20077;-59
2021/03/03 05:07:18;;;;;;;6.55;3.12;;;24.60;12.30;;;;;;4391716;32;20431;-60
2021/03/03 05:09:44;;;;;;;5.43;2.87;;;24.60;12.30;;;;;;4391690;32;20068;-60
2021/03/03 05:12:10;;;;;;;6.95;3.00;;;24.60;12.30;;;;;;4392583;32;20117;-59
2021/03/03 05:14:37;;;;;;;7.70;2.83;;;24.60;12.40;;;;;;4378633;32;20228;-59
2021/03/03 05:17:03;;;;;;;5.43;2.90;;;24.60;12.30;;;;;;4379749;32;20098;-62
2021/03/03 05:19:29;;;;;;;6.20;3.37;;;24.70;12.30;;;;;;4367136;32;20073;-61
2021/03/03 05:21:55;;;;;;;6.97;3.45;;;24.60;12.30;;;;;;4386057;32;20073;-59
2021/03/03 05:24:21;;;;;;;5.85;3.20;;;24.60;12.40;;;;;;4381959;32;20065;-59
2021/03/03 05:26:48;;;;;;;6.03;3.75;;;24.60;12.40;;;;;;4394678;32;20218;-58
2021/03/03 05:29:14;;;;;;;7.93;3.50;;;24.60;12.40;;;;;;4384724;32;20206;-61
2021/03/03 05:31:40;;;;;;;7.37;3.85;;;24.60;12.30;;;;;;4376850;32;20166;-60
2021/03/03 05:34:07;;;;;;;5.85;3.30;;;24.80;12.70;;;;;;4378345;32;20089;-61
2021/03/03 05:36:33;;;;;;;6.43;3.05;;;24.70;12.40;;;;;;4404425;32;20077;-66
2021/03/03 05:38:59;;;;;;;4.82;2.85;;;24.60;12.50;;;;;;4402311;32;20086;-59
2021/03/03 05:41:26;;;;;;;5.80;2.70;;;24.70;12.70;;;;;;4372493;32;20069;-60
2021/03/03 05:43:53;;;;;;;6.05;3.53;;;24.70;12.90;;;;;;4370998;32;20597;-59
2021/03/03 05:46:19;;;;;;;7.50;3.15;;;24.80;13.00;;;;;;4382004;32;20081;-61
2021/03/03 05:49:00;;;;;;;6.05;3.45;;;24.80;13.20;;;;;;4393016;32;20066;-58
2021/03/03 05:51:26;;;;;;;6.85;3.53;;;24.90;13.20;;;;;;4389799;32;20065;-59
2021/03/03 05:53:52;;;;;;;6.82;3.50;;;24.90;13.40;;;;;;4367769;32;20166;-59
2021/03/03 05:56:22;;;;;;;6.30;2.58;;;24.90;13.50;;;;;;4364163;32;20077;-57
2021/03/03 05:58:49;;;;;;;7.30;3.80;;;25.00;13.40;;;;;;4370666;32;20074;-62
2021/03/03 06:01:16;;;;;;;5.28;2.85;;;25.00;13.40;;;;;;4386367;32;20511;-61
2021/03/03 06:03:42;;;;;;;8.82;4.15;;;25.10;13.60;;;;;;4361217;32;20095;-59
2021/03/03 06:06:09;;;;;;;7.32;3.60;;;25.10;13.50;;;;;;4381169;32;20100;-60
2021/03/03 06:08:35;;;;;;;5.05;3.00;;;25.00;13.50;;;;;;4369043;32;20153;-60
2021/03/03 06:11:03;;;;;;;7.53;3.60;;;25.10;13.50;;;;;;4369887;32;20070;-60
2021/03/03 06:13:29;;;;;;;5.22;2.85;;;25.10;13.60;;;;;;4364406;32;20563;-61
2021/03/03 06:15:55;;;;;;;8.00;3.45;;;25.10;13.70;;;;;;4397132;32;20105;-62
2021/03/03 06:18:23;;;;;;;5.37;3.12;;;25.10;13.80;;;;;;4377435;32;20072;-60
2021/03/03 06:20:54;;;;;;;7.25;3.20;;;25.20;13.70;;;;;;4364641;32;20074;-59
2021/03/03 06:23:25;;;;;;;5.93;3.17;;;25.20;13.60;;;;;;4378026;32;20176;-58
2021/03/03 06:25:57;;;;;;;6.95;3.67;;;25.20;13.60;;;;;;4366839;32;20070;-58
2021/03/03 06:28:41;;;;;;;5.03;3.45;;;25.20;13.60;;;;;;4395447;32;20078;-59
2021/03/03 06:31:34;;;;;;;7.60;3.92;;;25.20;13.70;;;;;;4377791;32;20093;-60
2021/03/03 06:34:17;;;;;;;8.15;3.80;;;25.20;13.70;;;;;;4365399;32;20573;-60
2021/03/03 06:36:47;;;;;;;6.65;3.22;;;25.20;13.70;;;;;;4394408;32;20077;-60
2021/03/03 06:39:17;;;;;;;7.70;4.10;;;25.20;13.80;;;;;;4386839;32;20161;-59
2021/03/03 06:41:43;;;;;;;8.38;4.10;;;25.20;13.80;;;;;;4390952;32;20069;-58
2021/03/03 06:44:09;;;;;;;10.55;4.35;;;25.20;13.80;;;;;;4392013;32;20522;-60
2021/03/03 06:46:36;;;;;;;8.38;4.90;;;25.20;13.80;;;;;;4390004;32;20074;-61
2021/03/03 06:49:02;;;;;;;6.97;4.57;;;25.20;13.80;;;;;;4375035;32;20074;-61
2021/03/03 06:51:35;;;;;;;9.73;5.10;;;25.20;13.90;;;;;;4365385;32;20501;-59
2021/03/03 06:54:16;;;;;;;11.77;5.53;;;25.20;13.80;;;;;;4385799;32;20089;-59
2021/03/03 06:56:44;;;;;;;10.77;5.03;;;25.20;13.90;;;;;;4353104;32;20093;-60
2021/03/03 06:59:33;;;;;;;6.80;4.40;;;25.30;13.90;;;;;;4381654;32;20487;-60
2021/03/03 07:02:09;;;;;;;9.88;5.57;;;25.30;14.70;;;;;;4384904;32;20066;-60
2021/03/03 07:04:39;;;;;;;13.13;5.68;;;25.40;13.80;;;;;;4385009;32;20082;-58
2021/03/03 07:07:11;;;;;;;11.12;4.85;;;25.40;13.80;;;;;;4380543;32;20609;-60
2021/03/03 07:09:57;;;;;;;10.07;5.25;;;25.40;13.90;;;;;;4391677;32;20556;-61
2021/03/03 07:12:30;;;;;;;11.60;5.80;;;25.40;13.80;;;;;;4379932;32;20066;-58
2021/03/03 07:15:09;;;;;;;12.43;5.60;;;25.40;13.90;;;;;;4341964;32;20077;-58
2021/03/03 07:17:36;;;;;;;7.28;3.78;;;25.40;13.90;;;;;;4390901;32;20188;-59
2021/03/03 07:20:11;;;;;;;6.68;3.45;;;25.50;13.80;;;;;;4397211;32;20516;-59
2021/03/03 07:22:40;;;;;;;6.12;3.33;;;25.50;13.90;;;;;;4396004;32;20074;-59
2021/03/03 07:25:11;;;;;;;13.23;3.50;;;25.50;14.10;;;;;;4377140;32;20078;-58
2021/03/03 07:27:39;;;;;;;4.80;2.37;;;25.40;14.00;;;;;;4375671;32;20081;-60
2021/03/03 07:30:13;;;;;;;4.55;2.70;;;25.40;13.90;;;;;;4367037;32;20094;-59
2021/03/03 07:32:40;;;;;;;8.88;2.92;;;25.40;14.10;;;;;;4394827;32;20065;-59
2021/03/03 07:35:07;;;;;;;5.22;2.62;;;25.40;14.10;;;;;;4374324;32;20236;-60
2021/03/03 07:37:39;;;;;;;3.97;2.40;;;25.40;14.10;;;;;;4375802;32;20073;-59
2021/03/03 07:40:14;;;;;;;6.53;2.97;;;25.40;14.10;;;;;;4369833;32;20084;-62
2021/03/03 07:42:42;;;;;;;3.33;2.40;;;25.50;14.20;;;;;;4368557;32;20078;-60
2021/03/03 07:45:11;;;;;;;5.28;2.90;;;25.60;14.10;;;;;;4360278;32;20496;-59
2021/03/03 07:47:42;;;;;;;6.35;2.60;;;25.50;14.10;;;;;;4354247;32;20062;-58
2021/03/03 07:50:11;;;;;;;4.97;2.67;;;25.40;14.20;;;;;;4377144;32;20081;-59
2021/03/03 07:52:55;;;;;;;3.53;2.28;;;25.60;14.20;;;;;;4371867;32;20503;-60
2021/03/03 07:55:22;;;;;;;5.55;2.50;;;25.50;14.20;;;;;;4386384;32;20070;-59
2021/03/03 07:57:50;;;;;;;3.95;2.40;;;25.40;14.50;;;;;;4382364;32;20156;-61
2021/03/03 08:00:37;;;;;;;4.50;2.40;;;25.40;14.40;;;;;;4370553;32;20062;-59
2021/03/03 08:03:04;;;;;;;4.50;2.33;;;25.40;14.30;;;;;;4376726;32;20090;-61
2021/03/03 08:05:40;;;;;;;4.37;2.78;;;25.50;14.40;;;;;;4382405;32;20064;-59
2021/03/03 08:08:29;;;;;;;4.25;2.45;;;25.60;14.30;;;;;;4382686;32;20069;-59
2021/03/03 08:10:58;;;;;;;3.92;2.30;;;25.60;14.30;;;;;;4373325;32;20509;-59
2021/03/03 08:13:35;;;;;;;3.53;2.40;;;25.50;14.40;;;;;;4389719;32;20062;-61
2021/03/03 08:16:02;;;;;;;2.97;2.00;;;25.50;14.40;;;;;;4387860;32;20084;-61
2021/03/03 08:18:36;;;;;;;5.32;2.40;;;25.60;14.40;;;;;;4381886;32;20149;-59
2021/03/03 08:21:25;;;;;;;2.60;1.90;;;25.60;14.50;;;;;;4371730;32;20093;-59
2021/03/03 08:23:59;;;;;;;3.17;1.95;;;25.60;14.50;;;;;;4388122;32;20081;-60
2021/03/03 08:26:28;;;;;;;2.65;1.75;;;25.60;14.50;;;;;;4355287;32;20070;-59
2021/03/03 08:29:24;;;;;;;2.35;1.80;;;25.60;14.50;;;;;;4381714;32;20080;-61
2021/03/03 08:31:50;;;;;;;4.72;2.33;;;25.60;14.50;;;;;;4384835;32;20086;-60
2021/03/03 08:34:17;;;;;;;4.20;2.53;;;25.60;14.50;;;;;;4390121;32;20069;-61
2021/03/03 08:36:48;;;;;;;4.62;2.47;;;25.70;14.50;;;;;;4399952;32;20069;-60
2021/03/03 08:39:24;;;;;;;4.05;2.10;;;25.60;14.50;;;;;;4403235;32;20464;-59
2021/03/03 08:41:50;;;;;;;3.00;2.03;;;25.60;14.60;;;;;;4377573;32;20080;-59
2021/03/03 08:44:17;;;;;;;3.97;2.60;;;25.60;14.70;;;;;;4389761;32;20074;-60
2021/03/03 08:46:47;;;;;;;4.40;2.50;;;25.50;14.70;;;;;;4388584;32;20515;-61
2021/03/03 08:49:33;;;;;;;5.55;2.47;;;25.50;14.70;;;;;;4387817;32;20065;-60
2021/03/03 08:52:11;;;;;;;3.62;2.37;;;25.60;14.70;;;;;;4409066;32;20511;-60
2021/03/03 08:54:46;;;;;;;5.37;2.50;;;25.60;14.70;;;;;;4349200;32;20070;-63
2021/03/03 08:57:32;;;;;;;3.60;1.90;;;25.60;14.80;;;;;;4389163;32;20100;-60
2021/03/03 08:59:59;;;;;;;2.80;1.90;;;25.70;14.80;;;;;;4381962;32;20503;-59
2021/03/03 09:02:39;;;;;;;4.80;2.60;;;25.60;14.80;;;;;;4389678;32;20463;-59
2021/03/03 09:05:11;;;;;;;4.07;2.05;;;25.60;14.80;;;;;;4378164;32;20166;-59
2021/03/03 09:07:37;;;;;;;3.95;2.12;;;25.50;14.90;;;;;;4359116;32;20076;-59
2021/03/03 09:10:17;;;;;;;4.80;2.37;;;25.60;14.90;;;;;;4375705;32;20516;-61
2021/03/03 09:12:44;;;;;;;4.68;2.08;;;25.60;15.00;;;;;;4382287;32;20148;-58
2021/03/03 09:15:14;;;;;;;5.00;2.40;;;25.60;15.00;;;;;;4365402;32;20066;-58
2021/03/03 09:17:40;;;;;;;4.68;2.30;;;25.60;15.00;;;;;;4383959;32;20149;-63
2021/03/03 09:20:18;;;;;;;5.72;2.22;;;25.70;15.80;;;;;;4374476;32;20091;-63
2021/03/03 09:22:48;;;;;;;3.08;2.08;;;26.00;15.40;;;;;;4384228;32;20111;-68
2021/03/03 09:25:24;;;;;;;2.85;2.10;;;25.90;15.50;;;;;;4381182;32;20308;-62
2021/03/03 09:27:52;;;;;;;2.30;1.85;;;26.10;15.60;;;;;;4371793;32;20069;-63
2021/03/03 09:30:19;;;;;;;3.03;1.60;;;26.10;15.60;;;;;;4376503;32;20058;-62
2021/03/03 09:32:49;;;;;;;3.67;1.67;;;26.10;15.70;;;;;;4393177;32;20089;-64
2021/03/03 09:35:18;;;;;;;3.28;2.08;;;26.10;15.80;;;;;;4398854;32;20160;-64
2021/03/03 09:37:47;;;;;;;5.80;1.98;;;25.90;16.00;;;;;;4387733;32;20069;-60
2021/03/03 09:40:17;;;;;;;3.28;2.12;;;26.10;16.00;;;;;;4388426;32;20153;-60
2021/03/03 09:42:46;;;;;;;4.35;2.00;;;26.10;16.10;;;;;;4385558;32;20452;-61
2021/03/03 09:45:20;;;;;;;2.60;1.80;;;26.10;16.00;;;;;;4406515;32;20088;-62
2021/03/03 09:47:47;;;;;;;2.72;1.60;;;26.10;16.10;;;;;;4366549;32;20498;-61
2021/03/03 09:50:17;;;;;;;2.85;1.83;;;26.00;16.20;;;;;;4382875;32;20066;-62
2021/03/03 09:52:51;;;;;;;3.47;1.75;;;26.10;16.20;;;;;;4391528;32;20067;-60
2021/03/03 09:55:19;;;;;;;2.72;1.52;;;26.20;16.20;;;;;;4363531;32;20069;-62
2021/03/03 09:57:53;;;;;;;4.87;1.67;;;26.30;16.20;;;;;;4390777;32;20158;-61
2021/03/03 10:00:50;;;;;;;1.77;1.40;;;26.30;16.30;;;;;;4382682;32;20072;-66
2021/03/03 10:03:16;;;;;;;2.22;1.40;;;26.30;16.20;;;;;;4371633;32;20508;-64
2021/03/03 10:05:53;;;;;;;1.77;1.40;;;26.30;16.20;;;;;;4377441;32;20080;-60
2021/03/03 10:08:20;;;;;;;1.42;1.17;;;26.40;16.20;;;;;;4378501;32;20089;-62
2021/03/03 10:10:48;;;;;;;2.47;1.15;;;26.60;15.90;;;;;;4366735;32;20505;-62
2021/03/03 10:13:24;;;;;;;3.20;1.75;;;26.60;16.20;;;;;;4377917;32;20076;-60
2021/03/03 10:15:51;;;;;;;2.92;1.52;;;26.70;16.20;;;;;;4390508;32;20146;-61
2021/03/03 10:18:17;;;;;;;3.25;1.50;;;26.70;16.10;;;;;;4370488;32;20084;-63
2021/03/03 10:20:56;;;;;;;2.28;1.73;;;26.90;16.10;;;;;;4390075;32;20476;-63
2021/03/03 10:23:27;;;;;;;2.95;1.55;;;27.40;15.80;;;;;;4384978;32;20072;-63
2021/03/03 10:26:06;;;;;;;4.32;1.60;;;27.70;15.30;;;;;;4365671;32;20507;-63
2021/03/03 10:28:33;;;;;;;2.35;1.50;;;27.90;15.00;;;;;;4377857;32;20078;-62
2021/03/03 10:31:04;;;;;;;4.12;1.30;;;28.00;14.80;;;;;;4370538;32;20085;-62
2021/03/03 10:33:41;;;;;;;4.05;1.62;;;28.10;14.90;;;;;;4349761;32;20503;-63
2021/03/03 10:36:13;;;;;;;2.65;1.62;;;28.00;15.00;;;;;;4375001;32;20069;-61
2021/03/03 10:38:54;;;;;;;3.55;1.52;;;27.50;13.30;;;;;;4391137;32;20058;-63
2021/03/03 10:41:27;;;;;;;11.50;7.60;;;27.60;14.50;;;;;;4380667;32;20065;-62
2021/03/03 10:43:53;;;;;;;2.95;1.70;;;28.00;14.60;;;;;;4376462;32;20104;-61
2021/03/03 10:46:21;;;;;;;3.70;1.80;;;28.00;14.60;;;;;;4392580;32;20077;-63
2021/03/03 10:48:48;;;;;;;2.28;1.50;;;28.00;14.60;;;;;;4370526;32;20108;-65
2021/03/03 10:51:16;;;;;;;5.15;1.37;;;28.10;14.70;;;;;;4360212;32;20072;-62
2021/03/03 10:53:59;;;;;;;2.40;0.98;;;28.10;14.80;;;;;;4368970;32;20081;-62
2021/03/03 10:56:41;;;;;;;1.77;1.20;;;28.10;14.80;;;;;;4380194;32;20532;-62
2021/03/03 10:59:27;;;;;;;2.10;1.23;;;28.20;14.80;;;;;;4379276;32;20085;-62
2021/03/03 11:01:58;;;;;;;1.80;1.27;;;28.30;14.80;;;;;;4383417;32;20108;-66
2021/03/03 11:04:42;;;;;;;2.80;1.27;;;28.20;15.00;;;;;;4380201;32;20278;-68
2021/03/03 11:07:10;;;;;;;2.90;1.23;;;28.30;15.00;;;;;;4373381;32;20134;-63
2021/03/03 11:09:36;;;;;;;2.47;1.40;;;28.20;15.30;;;;;;4368614;32;20164;-65
2021/03/03 11:12:03;;;;;;;3.90;1.60;;;28.00;15.70;;;;;;4385281;32;20497;-68
2021/03/03 11:14:29;;;;;;;4.57;1.58;;;28.10;15.70;;;;;;4390120;32;20481;-64
2021/03/03 11:16:56;;;;;;;2.65;1.75;;;28.30;15.70;;;;;;4381677;32;20093;-67
2021/03/03 11:19:23;;;;;;;1.87;1.37;;;28.40;15.70;;;;;;4371973;32;20100;-68
2021/03/03 11:21:51;;;;;;;2.85;1.80;;;28.40;15.90;;;;;;4383812;32;20503;-68
2021/03/03 11:24:17;;;;;;;3.33;1.52;;;28.40;16.00;;;;;;4360417;32;20205;-66
2021/03/03 11:26:44;;;;;;;4.07;1.77;;;28.40;16.20;;;;;;4388851;32;20105;-72
2021/03/03 11:29:10;;;;;;;1.95;1.60;;;28.40;16.50;;;;;;4381911;32;20085;-70
2021/03/03 11:31:37;;;;;;;2.72;1.48;;;28.40;16.70;;;;;;4381264;32;20106;-73
2021/03/03 11:34:04;;;;;;;1.73;1.10;;;28.40;16.60;;;;;;4381867;32;20111;-70
2021/03/03 11:36:30;;;;;;;2.45;1.48;;;28.50;16.80;;;;;;4388792;32;20072;-72
2021/03/03 11:38:56;;;;;;;3.55;2.15;;;28.40;16.90;;;;;;4364304;32;20076;-64
2021/03/03 11:41:23;;;;;;;2.67;1.45;;;28.50;16.80;;;;;;4360723;32;20544;-66
2021/03/03 11:43:49;;;;;;;3.00;1.80;;;28.60;16.90;;;;;;4348527;32;20057;-64
2021/03/03 11:46:16;;;;;;;1.65;0.88;;;28.60;16.90;;;;;;4382245;32;20077;-71
2021/03/03 11:48:42;;;;;;;1.65;1.33;;;28.50;17.20;;;;;;4389439;32;20511;-75
2021/03/03 11:51:08;;;;;;;1.85;1.25;;;28.50;17.20;;;;;;4388139;32;20167;-66
2021/03/03 11:53:34;;;;;;;7.68;1.80;;;28.40;17.30;;;;;;4379321;32;20596;-71
2021/03/03 11:56:00;;;;;;;2.08;1.30;;;28.40;17.50;;;;;;4387859;32;20057;-71
2021/03/03 11:58:27;;;;;;;2.22;1.30;;;28.40;17.50;;;;;;4372313;32;20077;-72
2021/03/03 12:00:53;;;;;;;1.48;1.30;;;28.40;17.40;;;;;;4367715;32;20551;-62
2021/03/03 12:03:19;;;;;;;2.72;1.55;;;28.40;17.80;;;;;;4382895;32;20113;-64
2021/03/03 12:05:46;;;;;;;2.47;1.35;;;28.40;17.70;;;;;;4369062;32;20070;-65
2021/03/03 12:08:12;;;;;;;1.02;0.70;;;28.50;17.80;;;;;;4388943;32;20154;-67
2021/03/03 12:10:38;;;;;;;3.30;1.17;;;28.30;15.90;;;;;;4391904;32;20056;-68
2021/03/03 12:13:05;;;;;;;3.67;1.10;;;28.40;17.40;;;;;;4391464;32;20089;-68
2021/03/03 12:15:31;;;;;;;5.97;1.33;;;28.30;17.80;;;;;;4381443;32;20085;-63
2021/03/03 12:17:58;;;;;;;3.03;1.58;;;28.10;15.80;;;;;;4391942;32;20112;-68
2021/03/03 12:20:27;;;;;;;2.30;1.27;;;28.10;16.30;;;;;;4369105;32;20130;-72
2021/03/03 12:22:56;;;;;;;2.95;1.50;;;28.00;17.70;;;;;;4386311;32;20158;-67
2021/03/03 12:25:23;;;;;;;1.17;1.08;;;28.10;17.50;;;;;;4390918;32;20284;-66
2021/03/03 12:27:49;;;;;;;2.65;1.10;;;28.20;17.50;;;;;;4371180;32;20058;-68
2021/03/03 12:30:16;;;;;;;3.67;1.35;;;28.20;17.70;;;;;;4382385;32;20119;-73
2021/03/03 12:32:43;;;;;;;1.27;0.98;;;28.30;17.60;;;;;;4383445;32;20089;-69
2021/03/03 12:35:10;;;;;;;1.37;1.08;;;28.20;17.80;;;;;;4387012;32;20081;-69
2021/03/03 12:37:36;;;;;;;3.25;1.35;;;28.10;17.80;;;;;;4392869;32;20133;-68
2021/03/03 12:40:04;;;;;;;1.58;1.27;;;28.30;17.70;;;;;;4365238;32;20164;-70
2021/03/03 12:42:30;;;;;;;1.83;1.15;;;28.30;17.50;;;;;;4387148;32;20081;-73
2021/03/03 12:44:57;;;;;;;1.80;1.30;;;28.40;17.50;;;;;;4390512;32;20093;-67
2021/03/03 12:47:23;;;;;;;2.67;1.50;;;28.40;17.30;;;;;;4389145;32;20098;-66
2021/03/03 12:49:50;;;;;;;2.45;1.12;;;28.40;17.40;;;;;;4393486;32;20090;-68
2021/03/03 12:52:16;;;;;;;5.90;2.00;;;28.50;17.10;;;;;;4375622;32;20098;-66
2021/03/03 12:54:42;;;;;;;3.90;1.65;;;28.40;17.20;;;;;;4375800;32;20153;-67
2021/03/03 12:57:08;;;;;;;4.47;2.00;;;28.40;17.20;;;;;;4373985;32;20096;-74